createdAt,value
2022-10-26T00:03:42.837Z,75.25
2022-10-26T00:08:45.564Z,74.95
2022-10-26T00:13:48.375Z,74.30
2022-10-26T00:18:50.638Z,74.73
2022-10-26T00:23:52.665Z,74.06
2022-10-26T00:28:55.824Z,73.60
2022-10-26T00:33:57.867Z,73.34
2022-10-26T00:38:59.912Z,73.47
2022-10-26T00:44:21.965Z,73.87
2022-10-26T00:49:24.328Z,73.25
2022-10-26T00:54:26.501Z,72.81
2022-10-26T00:59:28.504Z,72.76
2022-10-26T01:04:30.482Z,71.79
2022-10-26T01:09:33.125Z,71.05
2022-10-26T01:14:35.481Z,70.23
2022-10-26T01:19:57.614Z,69.49
2022-10-26T01:25:29.281Z,69.33
2022-10-26T01:30:34.059Z,68.82
2022-10-26T01:35:44.786Z,68.71
2022-10-26T01:40:53.093Z,68.75
2022-10-26T01:45:56.713Z,68.35
2022-10-26T01:50:59.729Z,68.18
2022-10-26T01:56:02.507Z,67.88
2022-10-26T02:01:34.453Z,68.12
2022-10-26T02:06:39.493Z,68.52
2022-10-26T02:11:52.118Z,68.75
2022-10-26T02:17:04.650Z,69.45
2022-10-26T02:22:31.705Z,70.07
2022-10-26T02:27:39.054Z,70.01
2022-10-26T02:32:45.384Z,69.86
2022-10-26T02:37:49.283Z,69.13
2022-10-26T02:42:53.160Z,69.78
2022-10-26T02:48:03.351Z,69.38
2022-10-26T02:53:25.448Z,68.56
2022-10-26T02:58:31.101Z,68.26
2022-10-26T03:03:33.180Z,68.30
2022-10-26T03:08:35.231Z,68.01
2022-10-26T03:13:37.213Z,68.08
2022-10-26T03:18:39.285Z,68.84
2022-10-26T03:23:42.204Z,68.86
2022-10-26T03:28:44.113Z,69.29
2022-10-26T03:33:46.270Z,68.42
2022-10-26T03:38:48.164Z,68.27
2022-10-26T03:43:50.168Z,68.03
2022-10-26T03:48:58.252Z,67.71
2022-10-26T03:54:01.737Z,68.62
2022-10-26T03:59:04.167Z,68.48
2022-10-26T04:04:06.447Z,68.86
2022-10-26T04:09:08.564Z,67.84
2022-10-26T04:14:10.525Z,67.15
2022-10-26T04:19:12.434Z,67.37
2022-10-26T04:24:14.711Z,67.08
2022-10-26T04:29:16.746Z,66.72
2022-10-26T04:34:18.952Z,66.52
2022-10-26T04:39:20.884Z,66.32
2022-10-26T04:44:23.065Z,67.49
2022-10-26T04:49:25.254Z,68.50
2022-10-26T04:54:27.176Z,67.30
2022-10-26T04:59:29.091Z,67.07
2022-10-26T05:04:31.269Z,67.50
2022-10-26T05:09:33.338Z,69.65
2022-10-26T05:14:35.339Z,68.90
2022-10-26T05:19:37.489Z,70.71
2022-10-26T05:24:39.524Z,68.30
2022-10-26T05:29:41.643Z,67.49
2022-10-26T05:34:44.130Z,67.37
2022-10-26T05:39:46.328Z,69.47
2022-10-26T05:44:48.573Z,68.25
2022-10-26T05:49:50.556Z,67.88
2022-10-26T05:54:52.790Z,69.44
2022-10-26T05:59:55.025Z,67.04
2022-10-26T06:05:05.171Z,68.77
2022-10-26T06:10:07.939Z,67.71
2022-10-26T06:15:16.381Z,68.20
2022-10-26T06:20:50.851Z,66.71
2022-10-26T06:26:26.856Z,65.14
2022-10-26T06:31:28.956Z,63.99
2022-10-26T06:36:32.097Z,64.57
2022-10-26T06:41:35.802Z,61.92
2022-10-26T06:46:46.283Z,61.61
2022-10-26T06:51:57.515Z,61.96
2022-10-26T06:56:59.893Z,61.62
2022-10-26T07:02:05.578Z,60.84
2022-10-26T07:07:11.949Z,60.28
2022-10-26T07:12:13.979Z,58.86
2022-10-26T07:17:17.007Z,59.46
2022-10-26T07:22:18.925Z,58.11
2022-10-26T07:27:21.005Z,57.96
2022-10-26T07:32:23.216Z,55.73
2022-10-26T07:37:25.311Z,51.30
2022-10-26T07:42:31.932Z,49.69
2022-10-26T07:47:34.040Z,43.74
2022-10-26T07:52:36.990Z,38.76
2022-10-26T07:57:39.405Z,35.76
2022-10-26T08:02:41.677Z,33.96
2022-10-26T08:07:44.876Z,33.83
2022-10-26T08:12:46.907Z,33.91
2022-10-26T08:17:49.255Z,30.95
2022-10-26T08:22:52.848Z,28.61
2022-10-26T08:27:54.768Z,26.97
2022-10-26T08:33:05.528Z,27.12
2022-10-26T08:38:07.652Z,24.17
2022-10-26T08:43:25.377Z,23.70
2022-10-26T08:48:40.661Z,27.16
2022-10-26T08:54:00.565Z,27.39
2022-10-26T08:59:28.519Z,25.04
2022-10-26T09:04:32.269Z,22.88
2022-10-26T09:09:58.930Z,21.31
2022-10-26T09:15:25.637Z,20.28
2022-10-26T09:20:49.912Z,18.81
2022-10-26T09:26:00.816Z,20.41
2022-10-26T09:31:04.548Z,19.88
2022-10-26T09:36:16.924Z,18.58
2022-10-26T09:41:37.252Z,15.55
2022-10-26T09:47:12.985Z,18.10
2022-10-26T09:52:16.166Z,18.14
2022-10-26T09:57:20.730Z,21.34
2022-10-26T10:02:47.172Z,22.16
2022-10-26T10:07:49.601Z,19.27
2022-10-26T10:12:52.968Z,17.48
2022-10-26T10:17:58.626Z,16.64
2022-10-26T10:23:03.721Z,14.13
2022-10-26T10:28:22.918Z,14.91
2022-10-26T10:33:41.457Z,14.84
2022-10-26T10:38:45.675Z,14.52
2022-10-26T10:43:51.804Z,14.00
2022-10-26T10:49:02.630Z,14.45
2022-10-26T10:54:05.958Z,12.98
2022-10-26T10:59:18.313Z,11.46
2022-10-26T11:04:45.861Z,14.13
2022-10-26T11:09:49.626Z,12.07
2022-10-26T11:15:12.656Z,11.59
2022-10-26T11:20:24.928Z,11.69
2022-10-26T11:25:35.718Z,14.44
2022-10-26T11:30:44.055Z,13.65
2022-10-26T11:35:50.058Z,13.43
2022-10-26T11:41:25.083Z,13.79
2022-10-26T11:46:42.605Z,10.05
2022-10-26T11:52:04.853Z,10.42
2022-10-26T11:57:07.772Z,4.80
2022-10-26T12:02:17.997Z,4.60
2022-10-26T12:07:29.084Z,3.53
2022-10-26T12:13:06.688Z,3.21
2022-10-26T12:18:54.064Z,5.74
2022-10-26T12:23:56.737Z,3.80
2022-10-26T12:29:01.711Z,3.45
2022-10-26T12:34:25.344Z,6.20
2022-10-26T12:39:37.011Z,8.99
2022-10-26T12:45:00.160Z,12.13
2022-10-26T12:50:08.382Z,13.61
2022-10-26T12:55:18.141Z,13.66
2022-10-26T13:00:27.856Z,13.37
2022-10-26T13:05:39.066Z,12.80
2022-10-26T13:11:01.125Z,16.77
2022-10-26T13:16:03.945Z,17.41
2022-10-26T13:21:12.067Z,17.14
2022-10-26T13:26:18.255Z,19.19
2022-10-26T13:31:31.227Z,17.89
2022-10-26T13:36:36.752Z,19.21
2022-10-26T13:41:42.520Z,18.66
2022-10-26T13:46:46.735Z,18.86
2022-10-26T13:51:52.262Z,18.99
2022-10-26T13:57:28.070Z,20.62
2022-10-26T14:02:32.964Z,20.05
2022-10-26T14:12:51.294Z,22.24
2022-10-26T14:17:55.523Z,24.16
2022-10-26T14:22:57.880Z,22.92
2022-10-26T14:28:00.056Z,23.95
2022-10-26T14:33:19.821Z,27.09
2022-10-26T14:38:27.762Z,28.22
2022-10-26T14:43:31.063Z,29.08
2022-10-26T14:48:34.872Z,29.89
2022-10-26T14:53:41.391Z,29.84
2022-10-26T14:58:44.408Z,31.17
2022-10-26T15:03:48.368Z,32.53
2022-10-26T15:08:57.191Z,34.52
2022-10-26T15:14:00.422Z,36.02
2022-10-26T15:19:10.884Z,36.67
2022-10-26T15:24:38.982Z,37.95
2022-10-26T15:29:46.734Z,39.10
2022-10-26T15:35:19.555Z,39.91
2022-10-26T15:40:22.236Z,47.08
2022-10-26T15:45:34.207Z,43.51
2022-10-26T15:50:37.819Z,43.80
2022-10-26T15:55:42.937Z,46.11
2022-10-26T16:00:45.481Z,45.96
2022-10-26T16:05:51.582Z,47.14
2022-10-26T16:10:53.856Z,49.45
2022-10-26T16:15:55.958Z,48.24
2022-10-26T16:20:58.007Z,48.79
2022-10-26T16:26:00.164Z,47.50
2022-10-26T16:31:08.661Z,46.81
2022-10-26T16:36:12.810Z,48.06
2022-10-26T16:41:17.090Z,48.17
2022-10-26T16:46:21.358Z,47.37
2022-10-26T16:51:28.523Z,48.24
2022-10-26T16:56:30.628Z,49.54
2022-10-26T17:01:33.074Z,49.66
2022-10-26T17:06:35.255Z,48.54
2022-10-26T17:11:37.536Z,49.73
2022-10-26T17:16:39.524Z,47.96
2022-10-26T17:21:43.579Z,48.60
2022-10-26T17:26:45.690Z,49.66
2022-10-26T17:31:47.697Z,51.53
2022-10-26T17:36:49.777Z,48.77
2022-10-26T17:41:52.020Z,49.67
2022-10-26T17:46:53.957Z,48.79
2022-10-26T17:51:55.967Z,49.01
2022-10-26T17:56:58.741Z,51.32
2022-10-26T18:02:01.034Z,50.72
2022-10-26T18:07:04.234Z,50.43
2022-10-26T18:12:06.581Z,49.22
2022-10-26T18:17:08.753Z,51.19
2022-10-26T18:22:11.020Z,52.69
2022-10-26T18:27:13.511Z,52.02
2022-10-26T18:32:15.521Z,50.47
2022-10-26T18:37:17.796Z,50.91
2022-10-26T18:42:19.797Z,49.90
2022-10-26T18:47:21.773Z,50.73
2022-10-26T18:52:23.958Z,52.10
2022-10-26T18:57:28.480Z,52.30
2022-10-26T19:02:30.649Z,50.18
2022-10-26T19:07:33.182Z,50.63
2022-10-26T19:12:35.297Z,52.77
2022-10-26T19:17:37.322Z,51.62
2022-10-26T19:22:40.873Z,50.50
2022-10-26T19:27:51.709Z,50.12
2022-10-26T19:33:01.073Z,50.63
2022-10-26T19:38:05.556Z,51.72
2022-10-26T19:43:07.536Z,51.65
2022-10-26T19:48:09.485Z,50.86
2022-10-26T19:53:11.749Z,49.56
2022-10-26T19:58:14.161Z,50.92
2022-10-26T20:03:16.678Z,50.22
2022-10-26T20:08:19.758Z,48.76
2022-10-26T20:13:22.401Z,49.37
2022-10-26T20:18:24.526Z,49.90
2022-10-26T20:23:26.715Z,48.78
2022-10-26T20:28:29.768Z,51.30
2022-10-26T20:33:38.117Z,49.77
2022-10-26T20:38:40.629Z,50.58
2022-10-26T20:43:42.985Z,58.47
2022-10-26T20:48:45.338Z,58.00
2022-10-26T20:53:53.577Z,57.29
2022-10-26T20:58:58.421Z,54.37
2022-10-26T21:04:02.199Z,51.13
2022-10-26T21:09:04.256Z,48.55
2022-10-26T21:14:06.485Z,49.04
2022-10-26T21:19:08.509Z,49.18
2022-10-26T21:24:10.762Z,48.92
2022-10-26T21:29:12.927Z,51.43
2022-10-26T21:34:14.876Z,53.47
2022-10-26T21:39:16.886Z,54.75
2022-10-26T21:44:40.315Z,56.03
2022-10-26T21:54:50.093Z,58.19
2022-10-26T21:59:58.566Z,58.41
2022-10-26T22:05:00.564Z,59.19
2022-10-26T22:10:16.978Z,59.50
2022-10-26T22:15:18.937Z,58.26
2022-10-26T22:20:20.892Z,56.23
2022-10-26T22:25:22.879Z,54.24
2022-10-26T22:30:25.120Z,56.74
2022-10-26T22:35:30.293Z,54.77
2022-10-26T22:40:32.304Z,55.50
2022-10-26T22:45:34.278Z,55.79
2022-10-26T22:50:38.394Z,55.76
2022-10-26T22:55:42.068Z,56.45
2022-10-26T23:00:46.044Z,55.58
2022-10-26T23:05:48.245Z,54.69
2022-10-26T23:10:50.405Z,53.43
2022-10-26T23:15:52.641Z,55.08
2022-10-26T23:20:54.857Z,56.32
2022-10-26T23:26:04.593Z,58.67
2022-10-26T23:31:06.995Z,61.38
2022-10-26T23:36:09.025Z,62.35
2022-10-26T23:41:12.969Z,63.23
2022-10-26T23:46:15.494Z,63.35
2022-10-26T23:51:17.605Z,62.69
2022-10-26T23:56:19.634Z,63.20
